Time;durP1;ratioP1;P1;durP2;ratioP2;P2;SDS_P1;SDS_P2;PMS_P1;PMS_P2;Temp;Humidity;BMP_temperature;BMP_pressure;BME280_temperature;BME280_humidity;BME280_pressure;Samples;Min_cycle;Max_cycle;Signal;HPM_P1;HPM_P2
2022/05/25 00:02:06;;;;;;;2.27;2.03;;;18.60;85.10;19.20;96100.00;;;;5038985;28;20208;-85
2022/05/25 00:04:33;;;;;;;2.03;1.93;;;18.60;85.20;19.10;96086.00;;;;5037089;28;20262;-84
2022/05/25 00:07:01;;;;;;;1.97;1.77;;;18.60;85.10;19.20;96085.00;;;;5036768;28;20190;-84
2022/05/25 00:09:28;;;;;;;2.10;2.00;;;18.60;85.20;19.20;96085.00;;;;5044630;28;20216;-84
2022/05/25 00:11:57;;;;;;;2.77;2.23;;;18.60;86.10;19.20;96092.00;;;;5044699;28;20204;-84
2022/05/25 00:14:24;;;;;;;2.47;2.27;;;18.60;85.50;19.20;96095.00;;;;5032497;28;20221;-84
2022/05/25 00:16:51;;;;;;;2.47;2.27;;;18.60;85.40;19.20;96088.00;;;;5044381;28;20583;-84
2022/05/25 00:22:02;;;;;;;2.30;2.03;;;18.60;85.50;19.20;96092.00;;;;5036402;28;20737;-84
2022/05/25 00:24:29;;;;;;;2.23;2.10;;;18.60;85.40;19.20;96095.00;;;;5034318;28;20227;-85
2022/05/25 00:26:58;;;;;;;2.77;2.57;;;18.60;85.50;19.20;96098.00;;;;5025588;28;20193;-84
2022/05/25 00:29:25;;;;;;;2.50;2.37;;;18.70;85.30;19.20;96095.00;;;;5043219;28;20201;-85
2022/05/25 00:31:52;;;;;;;2.33;2.23;;;18.60;85.10;19.20;96091.00;;;;5042554;28;20209;-85
2022/05/25 00:34:20;;;;;;;2.53;2.40;;;18.60;85.00;19.20;96088.00;;;;5035520;28;20283;-85
2022/05/25 00:36:47;;;;;;;2.40;2.27;;;18.60;84.80;19.10;96075.00;;;;5032559;28;20208;-84
2022/05/25 00:39:14;;;;;;;3.73;2.63;;;18.60;84.70;19.10;96071.00;;;;5021677;28;20197;-84
2022/05/25 00:41:41;;;;;;;3.13;2.83;;;18.60;84.80;19.10;96075.00;;;;5035954;28;20198;-84
2022/05/25 00:44:09;;;;;;;2.67;2.57;;;18.60;84.90;19.10;96068.00;;;;5033780;28;20205;-85
2022/05/25 00:46:39;;;;;;;2.33;2.23;;;18.60;85.00;19.10;96060.00;;;;5042850;28;20201;-85
2022/05/25 00:49:13;;;;;;;2.70;2.50;;;18.50;85.20;19.10;96059.00;;;;5022743;28;20212;-85
2022/05/25 00:51:45;;;;;;;2.73;2.50;;;18.60;85.20;19.10;96057.00;;;;5034890;28;20284;-85
2022/05/25 00:54:19;;;;;;;2.90;2.60;;;18.60;85.00;19.10;96060.00;;;;5035225;28;20220;-85
2022/05/25 00:56:50;;;;;;;3.40;3.10;;;18.50;84.80;19.10;96064.00;;;;5035193;28;20251;-84
2022/05/25 00:59:25;;;;;;;4.33;3.50;;;18.60;84.90;19.10;96070.00;;;;5019171;28;20707;-85
2022/05/25 01:01:53;;;;;;;4.57;3.20;;;18.60;84.90;19.10;96069.00;;;;5042292;28;20541;-85
2022/05/25 01:04:20;;;;;;;2.67;2.47;;;18.50;84.80;19.10;96056.00;;;;5047160;28;20217;-83
2022/05/25 01:07:22;;;;;;;2.63;2.50;;;18.50;84.70;19.00;96069.00;;;;5046184;28;20197;-85
2022/05/25 01:10:09;;;;;;;3.37;2.27;;;18.50;84.60;19.00;96075.00;;;;5026767;28;20219;-85
2022/05/25 01:13:02;;;;;;;2.03;1.70;;;18.50;84.70;19.00;96072.00;;;;5023985;28;20352;-85
2022/05/25 01:15:45;;;;;;;2.83;2.00;;;18.50;84.80;19.00;96072.00;;;;5031471;28;20217;-85
2022/05/25 01:18:30;;;;;;;2.00;1.90;;;18.50;85.00;19.00;96077.00;;;;5049122;28;20547;-84
2022/05/25 01:21:03;;;;;;;2.23;2.03;;;18.50;85.10;19.00;96084.00;;;;5045647;28;20193;-85
2022/05/25 01:23:56;;;;;;;4.40;2.50;;;18.50;85.30;19.10;96091.00;;;;5029040;28;20194;-85
2022/05/25 01:26:59;;;;;;;3.00;2.27;;;18.50;85.00;19.00;96084.00;;;;5036093;28;20225;-85
2022/05/25 01:30:03;;;;;;;2.47;2.30;;;18.50;84.50;19.00;96081.00;;;;5022913;28;20205;-85
2022/05/25 01:32:39;;;;;;;2.90;2.60;;;18.50;84.40;19.00;96086.00;;;;5018690;28;20674;-85
2022/05/25 01:35:15;;;;;;;3.40;2.40;;;18.50;84.80;19.00;96093.00;;;;5037408;28;20232;-85
2022/05/25 01:37:52;;;;;;;2.33;2.13;;;18.50;84.90;19.00;96101.00;;;;5045731;28;20192;-85
2022/05/25 01:40:29;;;;;;;2.40;2.27;;;18.50;84.90;19.00;96104.00;;;;5039378;28;20197;-85
2022/05/25 01:43:01;;;;;;;2.27;2.13;;;18.50;85.10;19.00;96111.00;;;;5034147;28;20185;-85
2022/05/25 01:45:37;;;;;;;5.03;2.30;;;18.50;85.20;19.00;96102.00;;;;5033134;28;20225;-85
2022/05/25 01:48:09;;;;;;;2.50;2.30;;;18.50;85.40;19.10;96113.00;;;;5027831;28;20212;-85
2022/05/25 01:50:44;;;;;;;2.57;2.37;;;18.50;85.50;19.10;96124.00;;;;5035024;28;20216;-85
2022/05/25 01:53:15;;;;;;;2.70;2.23;;;18.50;85.50;19.10;96124.00;;;;5041736;28;20247;-85
2022/05/25 01:55:51;;;;;;;2.50;2.30;;;18.50;85.50;19.10;96126.00;;;;5039316;28;20562;-85
2022/05/25 01:58:22;;;;;;;2.70;2.50;;;18.50;85.50;19.10;96118.00;;;;5033810;28;20188;-85
2022/05/25 02:00:56;;;;;;;3.10;2.77;;;18.50;85.60;19.10;96120.00;;;;5033668;28;20562;-86
2022/05/25 02:06:41;;;;;;;2.93;2.40;;;18.60;85.70;19.10;96113.00;;;;5033432;28;20220;-85
2022/05/25 02:09:30;;;;;;;2.50;2.30;;;18.60;85.50;19.10;96107.00;;;;5015479;28;20200;-87
2022/05/25 02:12:11;;;;;;;2.60;2.37;;;18.60;85.50;19.10;96111.00;;;;5032802;28;20209;-85
2022/05/25 02:14:52;;;;;;;2.27;2.13;;;18.60;85.50;19.10;96109.00;;;;5032915;28;20221;-85
2022/05/25 02:17:33;;;;;;;2.23;2.10;;;18.60;85.50;19.10;96112.00;;;;5033530;28;20189;-85
2022/05/25 02:20:09;;;;;;;2.87;2.67;;;18.60;85.50;19.20;96114.00;;;;5032872;28;20211;-85
2022/05/25 02:22:42;;;;;;;2.37;2.17;;;18.60;85.60;19.20;96119.00;;;;5023979;28;20197;-85
2022/05/25 02:25:16;;;;;;;2.83;2.63;;;18.60;85.50;19.20;96121.00;;;;5032310;28;20222;-86
2022/05/25 02:27:51;;;;;;;3.30;3.10;;;18.60;86.40;19.20;96111.00;;;;5032970;28;20631;-85
2022/05/25 02:30:23;;;;;;;3.00;2.80;;;18.60;85.60;19.20;96105.00;;;;5032999;28;20203;-85
2022/05/25 02:32:57;;;;;;;3.20;3.00;;;18.60;85.60;19.20;96108.00;;;;5032998;28;20197;-85
2022/05/25 02:35:27;;;;;;;3.63;3.33;;;18.60;85.60;19.20;96115.00;;;;5031889;28;20225;-85
2022/05/25 02:38:02;;;;;;;3.43;3.23;;;18.60;85.60;19.20;96114.00;;;;5041196;28;20279;-85
2022/05/25 02:40:30;;;;;;;3.87;3.47;;;18.60;85.60;19.20;96110.00;;;;5040973;28;20266;-85
2022/05/25 02:42:57;;;;;;;3.17;2.97;;;18.60;85.80;19.20;96101.00;;;;5032477;28;20197;-85
2022/05/25 02:45:24;;;;;;;3.50;3.20;;;18.60;85.60;19.20;96099.00;;;;5022681;28;20723;-85
2022/05/25 02:47:52;;;;;;;4.30;3.37;;;18.60;85.40;19.10;96114.00;;;;5032951;28;20208;-85
2022/05/25 02:50:20;;;;;;;3.20;3.00;;;18.60;85.40;19.10;96119.00;;;;5032626;28;20211;-85
2022/05/25 02:52:47;;;;;;;3.77;3.57;;;18.60;85.70;19.10;96127.00;;;;5032814;28;20756;-85
2022/05/25 02:55:15;;;;;;;3.77;3.50;;;18.60;85.90;19.10;96137.00;;;;5032009;28;20586;-85
2022/05/25 02:57:42;;;;;;;3.70;3.50;;;18.60;86.10;19.10;96131.00;;;;5040622;28;20199;-85
2022/05/25 03:00:12;;;;;;;4.13;3.77;;;18.50;86.00;19.10;96137.00;;;;5032274;28;20205;-85
2022/05/25 03:02:39;;;;;;;3.97;3.50;;;18.50;86.00;19.10;96137.00;;;;5032658;28;20205;-85
2022/05/25 03:05:12;;;;;;;4.50;4.20;;;18.60;86.20;19.10;96145.00;;;;5032322;28;20229;-85
2022/05/25 03:07:39;;;;;;;4.17;3.87;;;18.60;86.20;19.10;96147.00;;;;5042753;28;20205;-86
2022/05/25 03:10:08;;;;;;;4.47;4.17;;;18.60;86.30;19.10;96148.00;;;;5023961;28;20203;-85
2022/05/25 03:12:35;;;;;;;5.73;4.67;;;18.60;86.30;19.10;96151.00;;;;5033641;28;20208;-85
2022/05/25 03:15:03;;;;;;;4.93;4.63;;;18.60;86.30;19.20;96153.00;;;;5044475;28;20602;-85
2022/05/25 03:17:30;;;;;;;5.20;4.90;;;18.60;86.20;19.10;96163.00;;;;5036746;28;20235;-85
2022/05/25 03:19:58;;;;;;;5.50;5.10;;;18.60;86.10;19.20;96156.00;;;;5035939;28;20662;-84
2022/05/25 03:22:27;;;;;;;5.20;4.83;;;18.60;86.10;19.10;96156.00;;;;5048696;28;20197;-84
2022/05/25 03:24:54;;;;;;;5.33;4.83;;;18.60;86.10;19.10;96154.00;;;;5033636;28;20694;-85
2022/05/25 03:27:21;;;;;;;5.33;4.93;;;18.60;86.20;19.10;96158.00;;;;5032382;28;20193;-84
2022/05/25 03:29:48;;;;;;;5.50;4.63;;;18.60;86.10;19.10;96168.00;;;;5040209;28;20193;-85
2022/05/25 03:32:15;;;;;;;4.43;4.13;;;18.60;86.00;19.10;96168.00;;;;5038680;28;20201;-84
2022/05/25 03:34:42;;;;;;;5.30;4.90;;;18.60;86.00;19.10;96167.00;;;;5033096;28;20263;-84
2022/05/25 03:37:09;;;;;;;5.33;4.93;;;18.50;86.10;19.10;96174.00;;;;5035798;28;20677;-84
2022/05/25 03:39:37;;;;;;;5.27;4.77;;;18.50;86.20;19.10;96182.00;;;;5031712;28;20674;-84
2022/05/25 03:42:08;;;;;;;4.73;4.43;;;18.50;86.30;19.10;96176.00;;;;5030186;28;20200;-84
2022/05/25 03:44:36;;;;;;;4.73;4.43;;;18.50;86.40;19.10;96189.00;;;;5033130;28;20218;-84
2022/05/25 03:47:04;;;;;;;4.77;4.47;;;18.50;86.30;19.10;96180.00;;;;5034717;28;20193;-84
2022/05/25 03:49:31;;;;;;;4.70;4.40;;;18.50;86.30;19.10;96189.00;;;;5036120;28;20197;-84
2022/05/25 03:51:58;;;;;;;4.93;4.53;;;18.50;86.30;19.10;96196.00;;;;5044487;28;20209;-84
2022/05/25 03:54:25;;;;;;;4.93;4.53;;;18.50;86.40;19.10;96196.00;;;;5036201;28;20229;-85
2022/05/25 03:56:54;;;;;;;4.57;4.17;;;18.50;86.40;19.10;96197.00;;;;5036116;28;20217;-84
2022/05/25 03:59:22;;;;;;;4.80;4.50;;;18.50;86.40;19.10;96198.00;;;;5035911;28;20204;-84
2022/05/25 04:01:49;;;;;;;4.37;4.07;;;18.60;86.40;19.10;96206.00;;;;5035024;28;20193;-84
2022/05/25 04:04:16;;;;;;;5.50;5.00;;;18.60;86.50;19.10;96206.00;;;;5042742;28;20666;-85
2022/05/25 04:06:43;;;;;;;4.90;4.50;;;18.50;86.40;19.10;96211.00;;;;5036226;28;20203;-85
2022/05/25 04:09:11;;;;;;;4.50;4.20;;;18.60;86.30;19.10;96220.00;;;;5035836;28;20201;-84
2022/05/25 04:11:39;;;;;;;4.43;4.13;;;18.50;86.20;19.10;96227.00;;;;5034971;28;20284;-85
2022/05/25 04:14:08;;;;;;;4.43;4.10;;;18.60;86.30;19.10;96229.00;;;;5035242;28;20213;-84
2022/05/25 04:16:35;;;;;;;4.50;4.20;;;18.60;86.50;19.10;96230.00;;;;5023508;28;20216;-84
2022/05/25 04:19:02;;;;;;;4.30;4.00;;;18.60;86.70;19.10;96219.00;;;;5033100;28;20197;-84
2022/05/25 04:21:29;;;;;;;3.80;3.50;;;18.60;86.80;19.20;96223.00;;;;5038062;28;20194;-89
2022/05/25 04:23:56;;;;;;;4.20;3.80;;;18.60;86.70;19.20;96228.00;;;;5035688;28;20224;-88
2022/05/25 04:26:23;;;;;;;3.70;3.40;;;18.60;86.40;19.10;96232.00;;;;5035623;28;20225;-91
2022/05/25 04:28:53;;;;;;;3.50;3.20;;;18.60;86.20;19.20;96231.00;;;;5017679;28;20190;-91
2022/05/25 04:31:21;;;;;;;3.00;2.80;;;18.60;86.10;19.10;96234.00;;;;5035537;28;20228;-89
2022/05/25 04:33:48;;;;;;;3.10;2.90;;;18.60;86.20;19.20;96235.00;;;;5035204;28;20201;-89
2022/05/25 04:36:15;;;;;;;3.13;2.83;;;18.50;86.30;19.10;96242.00;;;;5035044;28;20225;-89
2022/05/25 04:38:42;;;;;;;3.20;3.00;;;18.50;86.30;19.10;96244.00;;;;5035301;28;20193;-88
2022/05/25 04:41:09;;;;;;;3.10;2.90;;;18.50;86.40;19.10;96249.00;;;;5035355;28;20197;-88
2022/05/25 04:43:37;;;;;;;2.80;2.27;;;18.50;86.40;19.10;96253.00;;;;5035496;28;20203;-89
2022/05/25 04:46:08;;;;;;;2.80;2.60;;;18.50;86.40;19.10;96261.00;;;;5034675;28;20292;-89
2022/05/25 04:48:40;;;;;;;2.90;2.70;;;18.50;86.40;19.10;96252.00;;;;5035146;28;20216;-89
2022/05/25 04:51:07;;;;;;;2.97;2.77;;;18.50;86.30;19.10;96252.00;;;;5042629;28;20221;-90
2022/05/25 04:53:34;;;;;;;3.27;3.00;;;18.50;86.30;19.10;96245.00;;;;5044403;28;20193;-91
2022/05/25 04:58:48;;;;;;;3.63;2.93;;;18.40;86.20;19.00;96243.00;;;;5044395;28;20312;-89
2022/05/25 05:01:19;;;;;;;3.23;2.73;;;18.40;86.20;19.00;96258.00;;;;5039389;28;20227;-89
2022/05/25 05:03:49;;;;;;;3.57;2.83;;;18.30;86.10;19.00;96261.00;;;;5039477;28;20204;-89
2022/05/25 05:06:16;;;;;;;3.20;3.00;;;18.40;86.10;18.90;96263.00;;;;5034645;28;20222;-90
2022/05/25 05:08:46;;;;;;;3.30;3.10;;;18.40;86.10;18.90;96270.00;;;;5037160;28;20574;-89
2022/05/25 05:11:17;;;;;;;3.00;2.60;;;18.30;86.20;18.90;96266.00;;;;5055011;28;20542;-90
2022/05/25 05:13:44;;;;;;;2.83;2.63;;;18.30;86.20;18.90;96270.00;;;;5054608;28;20203;-90
2022/05/25 05:16:16;;;;;;;3.00;2.80;;;18.30;86.10;18.80;96275.00;;;;5054470;28;20315;-90
2022/05/25 05:18:44;;;;;;;2.60;2.40;;;18.40;86.10;18.80;96283.00;;;;5054184;28;20751;-90
2022/05/25 05:21:13;;;;;;;2.83;2.63;;;18.30;86.00;18.80;96279.00;;;;5054947;28;20654;-88
2022/05/25 05:23:41;;;;;;;3.50;2.30;;;18.30;85.90;18.70;96284.00;;;;5040096;28;20292;-88
2022/05/25 05:26:09;;;;;;;2.73;2.53;;;18.20;86.10;18.70;96288.00;;;;5034531;28;20342;-88
2022/05/25 05:28:40;;;;;;;2.40;2.30;;;18.20;86.10;18.70;96289.00;;;;5038068;28;20212;-89
2022/05/25 05:31:08;;;;;;;2.27;2.17;;;18.20;86.10;18.70;96296.00;;;;5034512;28;20209;-88
2022/05/25 05:33:39;;;;;;;2.47;2.27;;;18.20;86.20;18.70;96299.00;;;;5035996;28;20211;-88
2022/05/25 05:36:11;;;;;;;2.80;2.27;;;18.20;86.40;18.70;96304.00;;;;5033408;28;20598;-89
2022/05/25 05:38:45;;;;;;;2.60;2.13;;;18.10;86.40;18.70;96309.00;;;;5037586;28;20646;-88
2022/05/25 05:41:15;;;;;;;2.13;1.97;;;18.20;86.50;18.70;96317.00;;;;5040091;28;20208;-87
2022/05/25 05:43:42;;;;;;;2.07;1.97;;;18.10;86.60;18.70;96316.00;;;;5030447;28;20205;-88
2022/05/25 05:46:10;;;;;;;2.10;2.00;;;18.10;86.60;18.70;96325.00;;;;5034294;28;20221;-89
2022/05/25 05:48:39;;;;;;;2.83;2.23;;;18.10;86.50;18.70;96334.00;;;;5035632;28;20708;-87
2022/05/25 05:51:08;;;;;;;1.93;1.80;;;18.10;86.50;18.60;96350.00;;;;5044760;28;20192;-88
2022/05/25 05:53:35;;;;;;;2.03;1.80;;;18.10;86.60;18.60;96343.00;;;;5038021;28;20569;-88
2022/05/25 05:56:07;;;;;;;2.00;1.80;;;18.10;86.70;18.60;96352.00;;;;5034333;28;20593;-88
2022/05/25 05:58:35;;;;;;;2.80;1.93;;;18.10;86.80;18.60;96357.00;;;;5025093;28;20198;-88
2022/05/25 06:01:02;;;;;;;1.70;1.60;;;18.00;86.90;18.60;96365.00;;;;5034970;28;20204;-88
2022/05/25 06:03:29;;;;;;;3.10;1.77;;;18.00;86.80;18.60;96365.00;;;;5034153;28;20193;-88
2022/05/25 06:05:56;;;;;;;1.60;1.50;;;18.00;86.90;18.60;96366.00;;;;5033791;28;20644;-88
2022/05/25 06:08:26;;;;;;;1.73;1.63;;;18.00;87.00;18.60;96378.00;;;;5034145;28;20559;-88
2022/05/25 06:10:55;;;;;;;1.70;1.60;;;18.00;87.00;18.60;96368.00;;;;5033778;28;20201;-88
2022/05/25 06:13:24;;;;;;;1.57;1.43;;;18.00;87.30;18.60;96377.00;;;;5033834;28;20293;-88
2022/05/25 06:21:24;;;;;;;1.63;1.37;;;18.00;87.50;18.60;96395.00;;;;5032236;28;20209;-88
2022/05/25 06:23:52;;;;;;;2.43;1.63;;;18.00;87.60;18.70;96390.00;;;;5037946;28;20212;-88
2022/05/25 06:26:19;;;;;;;1.53;1.43;;;18.00;87.70;18.70;96399.00;;;;5033941;28;20233;-88
2022/05/25 06:28:48;;;;;;;1.50;1.40;;;18.00;87.90;18.70;96396.00;;;;5036428;28;20190;-88
2022/05/25 06:31:15;;;;;;;1.70;1.60;;;18.00;88.10;18.80;96399.00;;;;5033196;28;20236;-89
2022/05/25 06:33:43;;;;;;;1.67;1.43;;;18.10;88.20;18.80;96408.00;;;;5032513;28;20197;-88
2022/05/25 06:36:16;;;;;;;1.50;1.40;;;18.10;88.30;18.80;96412.00;;;;5038797;28;20233;-89
2022/05/25 06:38:43;;;;;;;1.40;1.30;;;18.20;88.30;18.90;96412.00;;;;5034193;28;20201;-89
2022/05/25 06:41:10;;;;;;;1.50;1.40;;;18.10;88.60;18.90;96419.00;;;;5042485;28;20284;-89
2022/05/25 06:43:37;;;;;;;1.30;1.30;;;18.20;87.90;18.90;96430.00;;;;5041013;28;20201;-89
2022/05/25 06:46:06;;;;;;;1.73;1.20;;;18.20;87.90;18.90;96433.00;;;;5032386;28;20253;-89
2022/05/25 06:48:33;;;;;;;1.20;1.20;;;18.20;88.20;18.90;96438.00;;;;5031126;28;20205;-89
2022/05/25 06:51:10;;;;;;;1.50;1.40;;;18.20;88.90;19.00;96430.00;;;;5033286;28;20213;-88
2022/05/25 06:53:38;;;;;;;1.30;1.30;;;18.20;88.50;19.00;96433.00;;;;5033426;28;20205;-88
2022/05/25 06:56:06;;;;;;;1.33;1.20;;;18.30;88.70;19.00;96447.00;;;;5033067;28;20233;-89
2022/05/25 06:58:34;;;;;;;1.23;1.23;;;18.30;88.60;19.10;96452.00;;;;5042957;28;20458;-88
2022/05/25 07:01:01;;;;;;;1.47;1.37;;;18.30;88.70;19.10;96456.00;;;;5032867;28;20205;-88
2022/05/25 07:03:29;;;;;;;1.40;1.30;;;18.30;88.40;19.10;96457.00;;;;5032476;28;20197;-89
2022/05/25 07:05:57;;;;;;;1.63;1.33;;;18.30;88.10;19.20;96456.00;;;;5032648;28;20300;-90
2022/05/25 07:08:25;;;;;;;1.80;1.70;;;18.40;88.10;19.20;96463.00;;;;5032419;28;20216;-89
2022/05/25 07:10:52;;;;;;;2.70;1.80;;;18.40;88.10;19.20;96462.00;;;;5040853;28;20201;-90
2022/05/25 07:13:20;;;;;;;1.70;1.60;;;18.40;88.00;19.20;96464.00;;;;5048290;28;20208;-90
2022/05/25 07:15:47;;;;;;;1.87;1.73;;;18.40;88.20;19.30;96465.00;;;;5046419;28;20219;-90
2022/05/25 07:18:14;;;;;;;2.10;2.00;;;18.50;88.60;19.30;96462.00;;;;5032215;28;20216;-89
2022/05/25 07:20:42;;;;;;;3.10;2.50;;;18.50;89.30;19.30;96474.00;;;;5033894;28;20551;-89
2022/05/25 07:23:09;;;;;;;2.00;1.90;;;18.50;88.50;19.40;96475.00;;;;5034419;28;20203;-89
2022/05/25 07:25:36;;;;;;;2.00;1.90;;;18.60;88.60;19.40;96478.00;;;;5032098;28;20571;-90
2022/05/25 07:28:04;;;;;;;2.43;2.30;;;18.60;88.40;19.40;96483.00;;;;5012847;28;20229;-89
2022/05/25 07:30:31;;;;;;;2.03;1.93;;;18.60;88.40;19.40;96487.00;;;;5036119;28;20197;-89
2022/05/25 07:32:59;;;;;;;1.83;1.73;;;18.60;88.60;19.50;96487.00;;;;5036704;28;20866;-89
2022/05/25 07:35:27;;;;;;;1.80;1.70;;;18.60;88.60;19.50;96494.00;;;;5047331;28;20303;-89
2022/05/25 07:37:58;;;;;;;1.73;1.63;;;18.70;88.50;19.50;96498.00;;;;5044587;28;20223;-88
2022/05/25 07:40:36;;;;;;;1.50;1.40;;;18.70;89.20;19.50;96490.00;;;;5041541;28;20197;-90
2022/05/25 07:43:09;;;;;;;1.27;1.17;;;18.70;88.50;19.60;96493.00;;;;5032369;28;20670;-89
2022/05/25 07:45:37;;;;;;;2.87;1.27;;;18.80;88.70;19.70;96492.00;;;;5034516;28;20213;-89
2022/05/25 07:48:05;;;;;;;1.80;1.70;;;18.80;88.80;19.70;96486.00;;;;5034450;28;20282;-87
2022/05/25 07:50:33;;;;;;;2.00;1.90;;;18.90;89.00;19.80;96492.00;;;;5032487;28;20207;-89
2022/05/25 07:53:03;;;;;;;1.70;1.60;;;18.90;89.30;19.90;96491.00;;;;5033246;28;20205;-89
2022/05/25 07:55:30;;;;;;;2.10;2.00;;;19.00;89.40;20.00;96495.00;;;;5032065;28;20220;-89
2022/05/25 07:57:57;;;;;;;1.90;1.80;;;19.00;89.30;20.00;96495.00;;;;5025771;28;20222;-89
2022/05/25 08:00:25;;;;;;;2.03;1.83;;;19.10;89.40;20.10;96494.00;;;;5025189;28;20200;-89
2022/05/25 08:05:44;;;;;;;1.70;1.60;;;19.20;89.20;20.20;96494.00;;;;5031773;28;20647;-89
2022/05/25 08:08:18;;;;;;;1.90;1.70;;;19.30;88.90;20.30;96498.00;;;;5043846;28;20666;-90
2022/05/25 08:10:49;;;;;;;1.70;1.60;;;19.30;89.00;20.30;96505.00;;;;5031782;28;20182;-87
2022/05/25 08:13:17;;;;;;;1.60;1.50;;;19.30;89.00;20.40;96507.00;;;;5045500;28;20203;-89
2022/05/25 08:15:45;;;;;;;1.20;1.20;;;19.40;89.20;20.50;96509.00;;;;5041007;28;20220;-89
2022/05/25 08:18:13;;;;;;;1.30;1.30;;;19.40;89.00;20.50;96505.00;;;;5031106;28;20221;-89
2022/05/25 08:20:40;;;;;;;1.30;1.20;;;19.50;88.80;20.60;96506.00;;;;5033202;28;20201;-89
2022/05/25 08:23:08;;;;;;;1.67;1.57;;;19.60;88.80;20.70;96504.00;;;;5035373;28;20201;-89
2022/05/25 08:25:38;;;;;;;1.60;1.33;;;19.60;88.30;20.70;96507.00;;;;5037636;28;20212;-90
2022/05/25 08:28:06;;;;;;;1.50;1.50;;;19.80;88.00;20.70;96509.00;;;;5045609;28;20284;-90
2022/05/25 08:30:38;;;;;;;1.30;1.20;;;19.80;87.80;20.80;96519.00;;;;5037538;28;20203;-89
2022/05/25 08:33:05;;;;;;;1.83;1.73;;;19.80;87.90;20.80;96527.00;;;;5043549;28;20200;-90
2022/05/25 08:35:33;;;;;;;1.90;1.50;;;19.80;87.40;20.90;96534.00;;;;5049167;28;20706;-90
2022/05/25 08:38:00;;;;;;;1.60;1.50;;;19.80;87.20;20.90;96532.00;;;;5034889;28;20304;-89
2022/05/25 08:40:31;;;;;;;1.20;1.20;;;19.90;87.50;21.00;96543.00;;;;5034790;28;20189;-90
2022/05/25 08:43:04;;;;;;;1.60;1.23;;;19.90;87.50;21.10;96539.00;;;;5042501;28;20666;-90
2022/05/25 08:45:38;;;;;;;1.57;0.97;;;20.00;87.60;21.20;96541.00;;;;5029112;28;20241;-90
2022/05/25 08:48:09;;;;;;;1.07;1.00;;;20.10;87.90;21.40;96542.00;;;;5034104;28;20291;-90
2022/05/25 08:50:38;;;;;;;1.00;1.00;;;20.20;88.20;21.50;96535.00;;;;5043510;28;20216;-90
2022/05/25 08:53:10;;;;;;;1.30;1.20;;;20.30;88.40;21.60;96539.00;;;;5045956;28;20199;-90
2022/05/25 08:56:02;;;;;;;1.00;1.00;;;20.40;88.50;21.70;96548.00;;;;5036578;28;20723;-89
2022/05/25 08:58:43;;;;;;;1.00;1.00;;;20.50;87.60;21.80;96535.00;;;;5036636;28;20249;-91
2022/05/25 09:01:18;;;;;;;1.17;0.80;;;20.60;87.10;21.90;96544.00;;;;5034647;28;20205;-90
2022/05/25 09:03:56;;;;;;;1.00;1.00;;;20.70;86.80;22.00;96544.00;;;;5034532;28;20186;-90
2022/05/25 09:06:37;;;;;;;0.93;0.93;;;20.80;86.60;22.10;96543.00;;;;5034283;28;20871;-91
2022/05/25 09:09:10;;;;;;;0.90;0.70;;;20.90;85.50;22.10;96548.00;;;;5034633;28;20636;-90
2022/05/25 09:11:44;;;;;;;0.53;0.53;;;20.90;85.10;22.10;96541.00;;;;5034617;28;20199;-90
2022/05/25 09:14:21;;;;;;;0.70;0.70;;;21.00;84.90;22.10;96546.00;;;;5034240;28;20268;-90
2022/05/25 09:16:54;;;;;;;0.50;0.50;;;21.00;84.90;22.20;96553.00;;;;5034251;28;20211;-90
2022/05/25 09:19:27;;;;;;;0.77;0.60;;;21.00;84.50;22.20;96553.00;;;;5034335;28;20216;-90
2022/05/25 09:21:58;;;;;;;0.40;0.40;;;21.10;83.80;22.20;96563.00;;;;5034555;28;20180;-91
2022/05/25 09:24:28;;;;;;;0.67;0.60;;;21.10;83.40;22.10;96565.00;;;;5034611;28;20201;-91
2022/05/25 09:26:56;;;;;;;0.40;0.40;;;21.00;83.00;22.10;96550.00;;;;5034537;28;20216;-90
2022/05/25 09:29:25;;;;;;;0.90;0.70;;;21.10;82.40;22.00;96564.00;;;;5034642;28;20746;-90
2022/05/25 09:31:56;;;;;;;0.50;0.40;;;21.10;81.70;21.90;96567.00;;;;5033306;28;20208;-90
2022/05/25 09:34:38;;;;;;;0.90;0.67;;;21.00;81.80;21.80;96565.00;;;;5047466;28;20210;-90
2022/05/25 09:37:15;;;;;;;1.10;0.80;;;21.00;80.80;21.70;96565.00;;;;5054103;28;20207;-90
2022/05/25 09:39:45;;;;;;;0.70;0.70;;;20.90;81.00;21.60;96567.00;;;;5054357;28;20203;-90
2022/05/25 09:42:20;;;;;;;1.03;1.00;;;20.80;80.90;21.50;96568.00;;;;5054339;28;20282;-90
2022/05/25 09:44:52;;;;;;;0.77;0.77;;;20.80;80.70;21.40;96568.00;;;;5053795;28;20882;-91
2022/05/25 09:47:25;;;;;;;0.77;0.77;;;20.70;80.80;21.30;96562.00;;;;5053875;28;20627;-90
2022/05/25 09:49:58;;;;;;;1.07;0.83;;;20.60;80.70;21.30;96558.00;;;;5054144;28;20224;-90
2022/05/25 09:52:36;;;;;;;1.20;1.07;;;20.60;81.50;21.20;96566.00;;;;5053984;28;20283;-90
2022/05/25 09:55:11;;;;;;;1.20;1.20;;;20.50;81.10;21.30;96565.00;;;;5046573;28;20784;-90
2022/05/25 09:57:45;;;;;;;1.00;1.00;;;20.50;81.90;21.30;96560.00;;;;5033832;28;20225;-90
2022/05/25 10:00:23;;;;;;;1.17;1.10;;;20.50;82.40;21.40;96572.00;;;;5033936;28;20192;-90
2022/05/25 10:02:59;;;;;;;1.40;1.07;;;20.50;82.00;21.40;96576.00;;;;5033687;28;20180;-90
2022/05/25 10:05:30;;;;;;;1.00;1.00;;;20.50;82.30;21.50;96563.00;;;;5033618;28;20316;-89
2022/05/25 10:08:03;;;;;;;1.10;1.10;;;20.50;82.70;21.60;96561.00;;;;5033804;28;20211;-91
2022/05/25 10:10:34;;;;;;;1.30;1.20;;;20.60;83.20;21.70;96565.00;;;;5033588;28;20200;-91
2022/05/25 10:13:14;;;;;;;1.33;1.33;;;20.60;83.20;21.90;96570.00;;;;5033725;28;20215;-91
2022/05/25 10:15:46;;;;;;;1.73;1.17;;;20.70;83.70;22.00;96566.00;;;;5032520;28;20236;-91
2022/05/25 10:18:15;;;;;;;1.67;1.57;;;20.80;83.90;22.10;96575.00;;;;5033333;28;20566;-91
2022/05/25 10:20:48;;;;;;;1.37;1.30;;;21.00;83.60;22.30;96573.00;;;;5046752;28;20193;-90
2022/05/25 10:23:23;;;;;;;1.50;1.40;;;21.10;83.30;22.40;96578.00;;;;5053506;28;20188;-91
2022/05/25 10:25:54;;;;;;;1.53;1.43;;;21.20;82.70;22.50;96572.00;;;;5039154;28;20239;-91
2022/05/25 10:28:27;;;;;;;1.73;1.30;;;21.30;83.20;22.70;96573.00;;;;5033334;28;20688;-91
2022/05/25 10:36:56;;;;;;;1.20;1.20;;;21.70;80.90;22.90;96572.00;;;;5033060;28;20388;-91
2022/05/25 10:39:33;;;;;;;2.60;1.30;;;21.80;81.30;23.00;96575.00;;;;5033371;28;20204;-90
2022/05/25 10:42:13;;;;;;;1.60;1.50;;;21.90;82.90;23.20;96578.00;;;;5033053;28;20178;-90
2022/05/25 10:44:53;;;;;;;1.13;1.13;;;22.20;82.40;23.30;96579.00;;;;5032633;28;20263;-91
2022/05/25 10:47:45;;;;;;;2.20;1.47;;;22.30;80.20;23.30;96576.00;;;;5032913;28;20185;-90
2022/05/25 10:50:21;;;;;;;1.10;1.10;;;22.50;79.00;23.40;96571.00;;;;5032929;28;20201;-90
2022/05/25 10:52:53;;;;;;;1.20;1.10;;;22.50;78.70;23.50;96564.00;;;;5013045;28;20213;-91
2022/05/25 10:55:20;;;;;;;0.93;0.93;;;22.60;78.00;23.50;96573.00;;;;5022207;28;20229;-91
2022/05/25 10:58:25;;;;;;;1.47;1.20;;;22.70;77.90;23.50;96585.00;;;;5037526;28;20741;-91
2022/05/25 11:01:31;;;;;;;2.00;1.40;;;22.70;76.90;23.50;96578.00;;;;5052350;28;20286;-91
2022/05/25 11:04:23;;;;;;;1.57;1.10;;;22.70;74.00;23.50;96577.00;;;;5052073;28;20183;-91
2022/05/25 11:07:13;;;;;;;1.30;1.20;;;22.70;76.00;23.50;96580.00;;;;5052262;28;20196;-90
2022/05/25 11:10:02;;;;;;;1.30;1.20;;;22.80;76.20;23.50;96578.00;;;;5052534;28;20177;-90
2022/05/25 11:12:41;;;;;;;1.00;1.00;;;22.70;76.20;23.60;96580.00;;;;5052729;28;20181;-90
2022/05/25 11:15:22;;;;;;;1.40;1.40;;;22.70;76.40;23.60;96576.00;;;;5048029;28;20231;-90
2022/05/25 11:18:19;;;;;;;1.23;1.10;;;22.70;74.60;23.60;96588.00;;;;5032452;28;20682;-91
2022/05/25 11:21:06;;;;;;;1.13;0.83;;;22.70;73.70;23.50;96596.00;;;;5031721;28;20606;-91
2022/05/25 11:24:01;;;;;;;1.07;0.97;;;22.60;74.60;23.50;96592.00;;;;5032508;28;20579;-88
2022/05/25 11:26:52;;;;;;;1.57;0.90;;;22.60;74.00;23.50;96600.00;;;;5031937;28;20591;-90
2022/05/25 11:29:43;;;;;;;0.87;0.87;;;22.60;74.10;23.50;96596.00;;;;5032345;28;20201;-91
2022/05/25 11:32:25;;;;;;;0.73;0.73;;;22.60;72.50;23.50;96598.00;;;;5032540;28;20192;-91
2022/05/25 11:35:17;;;;;;;0.80;0.80;;;22.60;72.60;23.50;96593.00;;;;5032302;28;20253;-90
2022/05/25 11:38:02;;;;;;;0.70;0.70;;;22.60;73.80;23.60;96598.00;;;;5032647;28;20327;-90
2022/05/25 11:40:43;;;;;;;0.70;0.70;;;22.60;74.10;23.70;96603.00;;;;5020330;28;20198;-90